Terminal Aerodrome Forecast
Issued by NWS

Home | Current Version | Previous Version | Text Only | Print | Product List | Glossary On
Versions: 1 2 3 4 5 6 7 8 9 10 11 12 13 14 15 16 17
000
FTUS44 KCRP 260749 AAA
TAFLRD
TAF AMD
KLRD 260749Z 2608/2706 13006KT P6SM OVC030
      TEMPO 2608/2612 4SM BR BKN006 OVC030
     FM261400 21008KT P6SM SKC
     FM261700 27010KT P6SM SKC=

USA.gov is the U.S. government's official web portal to all federal, state and local government web resources and services.